Time;durP1;ratioP1;P1;durP2;ratioP2;P2;SDS_P1;SDS_P2;PMS_P1;PMS_P2;Temp;Humidity;BMP_temperature;BMP_pressure;BME280_temperature;BME280_humidity;BME280_pressure;Samples;Min_cycle;Max_cycle;Signal;HPM_P1;HPM_P2
2023/01/27 00:00:50;;;;;;;16.17;7.67;;;1.30;99.90;;;;;;5101943;28;20016;-75
2023/01/27 00:03:17;;;;;;;15.30;6.93;;;1.20;99.90;;;;;;5074265;28;20028;-74
2023/01/27 00:05:43;;;;;;;14.60;7.73;;;1.20;99.90;;;;;;5083810;28;20028;-75
2023/01/27 00:08:08;;;;;;;15.83;7.70;;;1.20;99.90;;;;;;5073921;28;20202;-74
2023/01/27 00:10:34;;;;;;;18.50;8.73;;;1.30;99.90;;;;;;5087937;28;20550;-75
2023/01/27 00:15:44;;;;;;;16.17;7.80;;;1.10;99.90;;;;;;5079008;28;20496;-78
2023/01/27 00:18:10;;;;;;;21.97;8.03;;;1.20;99.90;;;;;;5073242;28;20032;-76
2023/01/27 00:26:10;;;;;;;16.40;7.57;;;1.20;99.90;;;;;;5112547;28;20088;-73
2023/01/27 00:28:37;;;;;;;15.93;8.20;;;1.20;99.90;;;;;;5074698;28;20116;-74
2023/01/27 00:31:03;;;;;;;21.67;8.50;;;1.20;99.90;;;;;;5092370;28;20085;-73
2023/01/27 00:33:29;;;;;;;18.57;8.50;;;1.20;99.90;;;;;;5085505;28;20028;-73
2023/01/27 00:35:59;;;;;;;19.43;8.47;;;1.30;99.90;;;;;;5112542;28;20024;-74
2023/01/27 00:38:26;;;;;;;18.17;7.97;;;1.20;99.90;;;;;;5075964;28;20026;-73
2023/01/27 00:43:35;;;;;;;18.70;8.33;;;1.30;99.90;;;;;;5104103;28;20097;-72
2023/01/27 00:46:01;;;;;;;20.33;8.60;;;1.30;99.90;;;;;;5095717;28;20047;-73
2023/01/27 00:48:27;;;;;;;19.03;9.23;;;1.30;99.90;;;;;;5108802;28;20036;-73
2023/01/27 00:50:52;;;;;;;22.13;10.03;;;1.30;99.90;;;;;;5086672;28;20036;-73
2023/01/27 00:53:18;;;;;;;19.30;8.70;;;1.20;99.90;;;;;;5094084;28;20449;-72
2023/01/27 00:55:46;;;;;;;20.87;9.83;;;1.20;99.90;;;;;;5094456;28;20123;-73
2023/01/27 00:58:11;;;;;;;21.80;9.67;;;1.20;99.90;;;;;;5097764;28;20029;-73
2023/01/27 01:00:37;;;;;;;22.27;9.73;;;1.20;99.90;;;;;;5101449;28;20384;-72
2023/01/27 01:03:02;;;;;;;21.83;10.00;;;1.20;99.90;;;;;;5077146;28;20500;-72
2023/01/27 01:05:28;;;;;;;22.67;9.33;;;1.20;99.90;;;;;;5078071;28;20024;-73
2023/01/27 01:07:54;;;;;;;20.37;9.70;;;1.20;99.90;;;;;;5095350;28;20023;-73
2023/01/27 01:10:19;;;;;;;20.77;9.47;;;1.20;99.90;;;;;;5096049;28;20028;-72
2023/01/27 01:12:45;;;;;;;19.33;9.07;;;1.20;99.90;;;;;;5095880;28;20081;-72
2023/01/27 01:15:10;;;;;;;17.23;8.27;;;1.10;99.90;;;;;;5095354;28;20024;-72
2023/01/27 01:17:36;;;;;;;22.47;9.57;;;1.20;99.90;;;;;;5077712;28;20024;-72
2023/01/27 01:20:02;;;;;;;20.83;9.93;;;1.20;99.90;;;;;;5100535;28;20132;-71
2023/01/27 01:22:27;;;;;;;25.60;9.40;;;1.20;99.90;;;;;;5096515;28;20081;-72
2023/01/27 01:24:53;;;;;;;20.20;8.90;;;1.10;99.90;;;;;;5077427;28;20118;-73
2023/01/27 01:27:18;;;;;;;19.73;9.10;;;1.10;99.90;;;;;;5077947;28;20025;-72
2023/01/27 01:29:44;;;;;;;19.53;9.50;;;1.20;99.90;;;;;;5077474;28;20109;-72
2023/01/27 01:32:09;;;;;;;18.33;8.73;;;1.20;99.90;;;;;;5094729;28;20030;-73
2023/01/27 01:34:36;;;;;;;19.67;9.17;;;1.30;99.90;;;;;;5095672;28;20031;-73
2023/01/27 01:37:02;;;;;;;17.87;8.40;;;1.20;99.90;;;;;;5076927;28;20382;-73
2023/01/27 01:39:29;;;;;;;20.13;8.83;;;1.30;99.90;;;;;;5077461;28;20078;-72
2023/01/27 01:41:55;;;;;;;17.60;8.50;;;1.20;99.90;;;;;;5095325;28;20024;-73
2023/01/27 01:44:31;;;;;;;20.53;9.50;;;1.20;99.90;;;;;;5095418;28;20461;-72
2023/01/27 01:46:58;;;;;;;20.70;9.40;;;1.20;99.90;;;;;;5095477;28;20031;-72
2023/01/27 01:49:35;;;;;;;18.13;8.97;;;1.20;99.90;;;;;;5077206;28;20031;-72
2023/01/27 01:52:09;;;;;;;18.03;8.90;;;1.10;99.90;;;;;;5076769;28;20039;-73
2023/01/27 01:54:41;;;;;;;18.13;8.57;;;1.20;99.90;;;;;;5095302;28;20024;-73
2023/01/27 01:57:21;;;;;;;20.23;8.73;;;1.20;99.90;;;;;;5076666;28;20024;-73
2023/01/27 01:59:52;;;;;;;16.63;7.90;;;1.20;99.90;;;;;;5076883;28;20174;-73
2023/01/27 02:02:22;;;;;;;20.17;8.10;;;1.20;99.90;;;;;;5076655;28;20129;-73
2023/01/27 02:05:12;;;;;;;21.53;8.70;;;1.20;99.90;;;;;;5077018;28;20035;-73
2023/01/27 02:07:58;;;;;;;17.00;8.17;;;1.20;99.90;;;;;;5093928;28;20051;-73
2023/01/27 02:10:24;;;;;;;20.50;8.30;;;1.20;99.90;;;;;;5095351;28;20043;-71
2023/01/27 02:12:50;;;;;;;19.20;8.67;;;1.20;99.90;;;;;;5076767;28;20028;-75
2023/01/27 02:15:16;;;;;;;16.23;7.33;;;1.20;99.90;;;;;;5076694;28;20035;-72
2023/01/27 02:17:42;;;;;;;20.50;8.20;;;1.20;99.90;;;;;;5076921;28;20028;-72
2023/01/27 02:20:29;;;;;;;18.27;7.97;;;1.20;99.90;;;;;;5094086;28;20519;-72
2023/01/27 02:23:06;;;;;;;17.53;8.13;;;1.20;99.90;;;;;;5076364;28;20499;-74
2023/01/27 02:25:35;;;;;;;19.20;8.30;;;1.30;99.90;;;;;;5094975;28;20030;-72
2023/01/27 02:28:07;;;;;;;17.43;8.17;;;1.30;99.90;;;;;;5094201;28;20480;-72
2023/01/27 02:30:33;;;;;;;19.33;8.30;;;1.30;99.90;;;;;;5076664;28;20028;-72
2023/01/27 02:32:58;;;;;;;17.50;8.00;;;1.30;99.90;;;;;;5075825;28;20036;-72
2023/01/27 02:35:31;;;;;;;17.23;7.97;;;1.30;99.90;;;;;;5076467;28;20127;-72
2023/01/27 02:37:57;;;;;;;19.40;8.90;;;1.30;99.90;;;;;;5075512;28;20039;-72
2023/01/27 02:40:24;;;;;;;18.87;8.53;;;1.40;99.90;;;;;;5094097;28;20036;-72
2023/01/27 02:42:49;;;;;;;18.77;8.77;;;1.40;99.90;;;;;;5076290;28;20024;-72
2023/01/27 02:45:15;;;;;;;17.27;8.20;;;1.40;99.90;;;;;;5093782;28;20101;-71
2023/01/27 02:47:41;;;;;;;19.33;9.00;;;1.40;99.90;;;;;;5076200;28;20034;-72
2023/01/27 02:50:07;;;;;;;18.17;8.60;;;1.40;99.90;;;;;;5075621;28;20032;-72
2023/01/27 02:52:32;;;;;;;21.23;8.63;;;1.40;99.90;;;;;;5094329;28;20040;-72
2023/01/27 02:54:58;;;;;;;19.73;8.70;;;1.40;99.90;;;;;;5075716;28;20469;-73
2023/01/27 02:57:24;;;;;;;19.83;8.77;;;1.40;99.90;;;;;;5076676;28;20035;-72
2023/01/27 02:59:49;;;;;;;19.37;9.50;;;1.40;99.90;;;;;;5076012;28;20381;-73
2023/01/27 03:02:21;;;;;;;21.53;8.87;;;1.30;99.90;;;;;;5082570;28;20024;-71
2023/01/27 03:04:47;;;;;;;20.17;8.98;;;1.30;99.90;;;;;;5088346;28;20025;-71
2023/01/27 03:07:13;;;;;;;22.00;9.90;;;1.40;99.90;;;;;;5086475;28;20132;-72
2023/01/27 03:09:38;;;;;;;22.63;9.73;;;1.30;99.90;;;;;;5076033;28;20131;-72
2023/01/27 03:12:19;;;;;;;20.60;8.93;;;1.40;99.90;;;;;;5075220;28;20462;-73
2023/01/27 03:20:14;;;;;;;21.23;9.50;;;1.30;99.90;;;;;;5091650;28;20115;-73
2023/01/27 03:22:40;;;;;;;18.77;9.60;;;1.20;99.90;;;;;;5075631;28;20032;-72
2023/01/27 03:25:06;;;;;;;19.43;9.77;;;1.30;99.90;;;;;;5093210;28;20024;-72
2023/01/27 03:27:32;;;;;;;19.57;9.20;;;1.30;99.90;;;;;;5075624;28;20029;-72
2023/01/27 03:29:57;;;;;;;21.40;9.53;;;1.20;99.90;;;;;;5093016;28;20038;-77
2023/01/27 03:32:26;;;;;;;19.20;9.40;;;1.20;99.90;;;;;;5093520;28;20024;-72
2023/01/27 03:34:52;;;;;;;22.33;9.63;;;1.20;99.90;;;;;;5075136;28;20461;-72
2023/01/27 03:48:17;;;;;;;17.10;8.67;;;1.30;99.90;;;;;;5092242;28;20042;-72
2023/01/27 03:50:43;;;;;;;20.17;9.63;;;1.20;99.90;;;;;;5092946;28;20028;-73
2023/01/27 03:53:09;;;;;;;20.77;8.97;;;1.30;99.90;;;;;;5092382;28;20039;-73
2023/01/27 03:55:37;;;;;;;19.43;8.73;;;1.30;99.90;;;;;;5092947;28;20032;-73
2023/01/27 03:58:18;;;;;;;21.83;10.00;;;1.30;99.90;;;;;;5074426;28;20024;-73
2023/01/27 04:00:56;;;;;;;21.25;9.07;;;1.20;99.90;;;;;;5075005;28;20032;-73
2023/01/27 04:08:56;;;;;;;23.83;9.50;;;1.30;99.90;;;;;;5093070;28;20100;-73
2023/01/27 04:14:08;;;;;;;18.87;8.53;;;1.30;99.90;;;;;;5092282;28;20051;-73
2023/01/27 04:16:35;;;;;;;22.30;10.43;;;1.30;99.90;;;;;;5092924;28;20076;-73
2023/01/27 04:19:02;;;;;;;20.70;9.00;;;1.30;99.90;;;;;;5091841;28;20043;-77
2023/01/27 04:21:28;;;;;;;26.43;9.00;;;1.30;99.90;;;;;;5092602;28;20062;-73
2023/01/27 04:23:54;;;;;;;20.27;9.27;;;1.30;99.90;;;;;;5092547;28;20027;-73
2023/01/27 04:26:20;;;;;;;19.27;9.77;;;1.30;99.90;;;;;;5091858;28;20567;-73
2023/01/27 04:28:47;;;;;;;22.23;8.63;;;1.30;99.90;;;;;;5074524;28;20024;-73
2023/01/27 04:31:14;;;;;;;21.27;9.60;;;1.30;99.90;;;;;;5073413;28;20078;-73
2023/01/27 04:33:40;;;;;;;18.57;9.30;;;1.30;99.90;;;;;;5092586;28;20077;-72
2023/01/27 04:36:06;;;;;;;21.03;9.03;;;1.20;99.90;;;;;;5091998;28;20110;-73
2023/01/27 04:38:31;;;;;;;21.07;9.23;;;1.20;99.90;;;;;;5074797;28;20118;-72
2023/01/27 04:40:57;;;;;;;23.50;9.80;;;1.30;99.90;;;;;;5074393;28;20458;-72
2023/01/27 04:43:23;;;;;;;17.73;8.93;;;1.30;99.90;;;;;;5074047;28;20028;-73
2023/01/27 04:45:48;;;;;;;20.73;9.53;;;1.40;99.90;;;;;;5092317;28;20393;-72
2023/01/27 04:48:14;;;;;;;21.53;8.97;;;1.40;99.90;;;;;;5073875;28;20039;-72
2023/01/27 04:50:39;;;;;;;22.13;9.63;;;1.30;99.90;;;;;;5092313;28;20036;-72
2023/01/27 04:53:05;;;;;;;24.80;10.20;;;1.30;99.90;;;;;;5074018;28;20032;-73
2023/01/27 04:55:31;;;;;;;21.60;9.73;;;1.30;99.90;;;;;;5074540;28;20115;-73
2023/01/27 04:57:56;;;;;;;22.60;9.87;;;1.30;99.90;;;;;;5092569;28;20016;-73
2023/01/27 05:00:22;;;;;;;24.53;10.73;;;1.30;99.90;;;;;;5073819;28;20032;-72
2023/01/27 05:02:47;;;;;;;22.77;9.53;;;1.30;99.90;;;;;;5074322;28;20070;-72
2023/01/27 05:05:13;;;;;;;22.43;9.17;;;1.30;99.90;;;;;;5091991;28;20028;-73
2023/01/27 05:07:38;;;;;;;23.73;10.00;;;1.30;99.90;;;;;;5074519;28;20024;-72
2023/01/27 05:10:05;;;;;;;24.50;9.73;;;1.30;99.90;;;;;;5073767;28;20477;-75
2023/01/27 05:12:32;;;;;;;24.43;9.63;;;1.30;99.90;;;;;;5074356;28;20028;-72
2023/01/27 05:14:58;;;;;;;26.13;10.43;;;1.30;99.90;;;;;;5074303;28;20030;-73
2023/01/27 05:17:23;;;;;;;28.53;9.83;;;1.30;99.90;;;;;;5091773;28;20620;-72
2023/01/27 05:19:49;;;;;;;24.90;10.30;;;1.30;99.90;;;;;;5073778;28;20048;-72
2023/01/27 05:22:14;;;;;;;22.47;9.47;;;1.30;99.90;;;;;;5091816;28;20465;-73
2023/01/27 05:24:40;;;;;;;25.77;9.90;;;1.30;99.90;;;;;;5074386;28;20035;-73
2023/01/27 05:27:06;;;;;;;25.10;9.53;;;1.30;99.90;;;;;;5073351;28;20024;-73
2023/01/27 05:29:31;;;;;;;21.87;9.27;;;1.30;99.90;;;;;;5074029;28;20028;-72
2023/01/27 05:31:57;;;;;;;24.57;9.60;;;1.30;99.90;;;;;;5073881;28;20025;-73
2023/01/27 05:34:23;;;;;;;25.33;10.33;;;1.30;99.90;;;;;;5073475;28;20031;-73
2023/01/27 05:36:50;;;;;;;26.00;9.60;;;1.30;99.90;;;;;;5092045;28;20032;-73
2023/01/27 05:39:16;;;;;;;24.70;10.63;;;1.30;99.90;;;;;;5073152;28;20039;-73
2023/01/27 05:41:42;;;;;;;25.40;10.00;;;1.30;99.90;;;;;;5091596;28;20028;-72
2023/01/27 05:44:10;;;;;;;28.70;10.93;;;1.30;99.90;;;;;;5074747;28;20377;-73
2023/01/27 05:46:38;;;;;;;28.97;11.17;;;1.30;99.90;;;;;;5077460;28;20032;-73
2023/01/27 05:49:04;;;;;;;26.73;11.13;;;1.30;99.90;;;;;;5095100;28;20031;-76
2023/01/27 05:51:33;;;;;;;25.70;10.60;;;1.30;99.90;;;;;;5094993;28;20028;-72
2023/01/27 05:53:58;;;;;;;28.83;11.23;;;1.30;99.90;;;;;;5095530;28;20024;-72
2023/01/27 05:56:27;;;;;;;26.40;11.13;;;1.30;99.90;;;;;;5076144;28;20220;-73
2023/01/27 05:58:55;;;;;;;26.13;10.93;;;1.30;99.90;;;;;;5076990;28;20074;-72
2023/01/27 06:01:23;;;;;;;27.40;11.10;;;1.30;99.90;;;;;;5076248;28;20473;-73
2023/01/27 06:03:49;;;;;;;27.00;11.00;;;1.30;99.90;;;;;;5095134;28;20032;-73
2023/01/27 06:06:19;;;;;;;27.73;11.13;;;1.30;99.90;;;;;;5076328;28;20039;-73
2023/01/27 06:08:46;;;;;;;27.17;10.97;;;1.30;99.90;;;;;;5094910;28;20035;-72
2023/01/27 06:11:12;;;;;;;25.77;11.50;;;1.40;99.90;;;;;;5094285;28;20111;-73
2023/01/27 06:13:38;;;;;;;27.13;11.63;;;1.40;99.90;;;;;;5094841;28;20025;-73
2023/01/27 06:16:06;;;;;;;29.63;11.20;;;1.40;99.90;;;;;;5076798;28;20074;-74
2023/01/27 06:18:32;;;;;;;27.43;10.37;;;1.30;99.90;;;;;;5076108;28;20040;-73
2023/01/27 06:21:00;;;;;;;31.23;11.10;;;1.30;99.90;;;;;;5076701;28;20037;-73
2023/01/27 06:23:26;;;;;;;29.67;11.30;;;1.30;99.90;;;;;;5075703;28;20213;-73
2023/01/27 06:25:53;;;;;;;29.83;11.77;;;1.20;99.90;;;;;;5094664;28;20031;-73
2023/01/27 06:28:19;;;;;;;27.67;12.33;;;1.30;99.90;;;;;;5093916;28;20032;-73
2023/01/27 06:30:45;;;;;;;31.57;12.57;;;1.30;99.90;;;;;;5076720;28;20170;-73
2023/01/27 06:33:11;;;;;;;25.17;10.87;;;1.40;99.90;;;;;;5093982;28;20103;-73
2023/01/27 06:35:38;;;;;;;29.63;11.40;;;1.30;99.90;;;;;;5076631;28;20024;-72
2023/01/27 06:38:07;;;;;;;28.67;11.33;;;1.30;99.90;;;;;;5076533;28;20020;-73
2023/01/27 06:40:34;;;;;;;25.23;10.90;;;1.30;99.90;;;;;;5094044;28;20509;-72
2023/01/27 06:43:00;;;;;;;28.83;11.27;;;1.30;99.90;;;;;;5076415;28;20032;-72
2023/01/27 06:45:26;;;;;;;26.03;11.10;;;1.30;99.90;;;;;;5093687;28;20703;-73
2023/01/27 06:47:57;;;;;;;27.50;11.30;;;1.30;99.90;;;;;;5094354;28;20032;-73
2023/01/27 06:50:23;;;;;;;27.43;11.13;;;1.40;99.90;;;;;;5093671;28;20377;-73
2023/01/27 06:52:50;;;;;;;26.00;10.27;;;1.30;99.90;;;;;;5075953;28;20055;-72
2023/01/27 06:55:16;;;;;;;26.90;10.80;;;1.30;99.90;;;;;;5075321;28;20032;-73
2023/01/27 06:57:42;;;;;;;26.90;10.70;;;1.30;99.90;;;;;;5094296;28;20027;-73
2023/01/27 07:00:08;;;;;;;30.60;11.43;;;1.40;99.90;;;;;;5075712;28;20070;-76
2023/01/27 07:02:34;;;;;;;25.37;10.27;;;1.40;99.90;;;;;;5075923;28;20528;-73
2023/01/27 07:05:00;;;;;;;34.70;13.07;;;1.40;99.90;;;;;;5094274;28;20032;-73
2023/01/27 07:07:25;;;;;;;26.20;10.33;;;1.40;99.90;;;;;;5075541;28;20032;-73
2023/01/27 07:09:51;;;;;;;32.50;11.60;;;1.50;99.90;;;;;;5094189;28;20040;-73
2023/01/27 07:12:16;;;;;;;25.57;10.67;;;1.40;99.90;;;;;;5075480;28;20028;-73
2023/01/27 07:14:42;;;;;;;29.10;11.90;;;1.40;99.90;;;;;;5093874;28;20021;-73
2023/01/27 07:17:07;;;;;;;28.40;11.87;;;1.40;99.90;;;;;;5094126;28;20104;-74
2023/01/27 07:19:33;;;;;;;27.57;11.27;;;1.40;99.90;;;;;;5074740;28;20044;-73
2023/01/27 07:21:59;;;;;;;31.07;11.90;;;1.30;99.90;;;;;;5075357;28;20499;-73
2023/01/27 07:24:25;;;;;;;30.63;11.63;;;1.40;99.90;;;;;;5075138;28;20492;-73
2023/01/27 07:26:50;;;;;;;28.83;11.03;;;1.40;99.90;;;;;;5075713;28;20063;-73
2023/01/27 07:29:16;;;;;;;29.43;12.00;;;1.40;99.90;;;;;;5093098;28;20020;-73
2023/01/27 07:31:43;;;;;;;30.57;11.70;;;1.40;99.90;;;;;;5075496;28;20373;-73
2023/01/27 07:34:09;;;;;;;30.50;11.97;;;1.40;99.90;;;;;;5093550;28;20024;-76
2023/01/27 07:36:35;;;;;;;28.77;10.60;;;1.30;99.90;;;;;;5074971;28;20027;-73
2023/01/27 07:39:00;;;;;;;28.50;11.90;;;1.40;99.90;;;;;;5075487;28;20055;-73
2023/01/27 07:41:26;;;;;;;30.07;10.60;;;1.40;99.90;;;;;;5074417;28;20028;-73
2023/01/27 07:43:51;;;;;;;35.27;12.53;;;1.40;99.90;;;;;;5093277;28;20088;-73
2023/01/27 07:46:17;;;;;;;30.60;11.40;;;1.40;99.90;;;;;;5074348;28;20028;-74
2023/01/27 07:48:43;;;;;;;32.70;11.30;;;1.50;99.90;;;;;;5075177;28;20024;-73
2023/01/27 07:51:12;;;;;;;28.53;11.00;;;1.50;99.90;;;;;;5093330;28;20071;-73
2023/01/27 07:53:38;;;;;;;28.00;11.17;;;1.60;99.90;;;;;;5092996;28;20024;-73
2023/01/27 07:56:04;;;;;;;29.10;11.50;;;1.60;99.90;;;;;;5075012;28;20020;-73
2023/01/27 07:58:30;;;;;;;25.13;10.07;;;1.60;99.90;;;;;;5074464;28;20027;-73
2023/01/27 08:00:56;;;;;;;29.27;11.67;;;1.60;99.90;;;;;;5074790;28;20081;-73
2023/01/27 08:03:23;;;;;;;28.30;10.43;;;1.60;99.90;;;;;;5074220;28;20124;-72
2023/01/27 08:05:49;;;;;;;26.47;10.53;;;1.60;99.90;;;;;;5074238;28;20139;-72
2023/01/27 08:08:15;;;;;;;28.00;10.10;;;1.60;99.90;;;;;;5073791;28;20091;-76
2023/01/27 08:10:48;;;;;;;26.47;10.43;;;1.70;99.90;;;;;;5092370;28;20035;-72
2023/01/27 08:13:13;;;;;;;;;;;1.70;99.90;;;;;;5092952;28;20073;-77
2023/01/27 08:15:39;;;;;;;18.87;7.73;;;1.70;99.90;;;;;;5074109;28;19908;-73
2023/01/27 08:18:05;;;;;;;23.33;9.03;;;1.70;99.90;;;;;;5074391;28;20035;-73
2023/01/27 08:20:31;;;;;;;22.20;8.70;;;1.70;99.90;;;;;;5073719;28;20028;-72
2023/01/27 08:22:57;;;;;;;21.70;8.97;;;1.50;99.90;;;;;;5092668;28;20039;-73
2023/01/27 08:25:23;;;;;;;22.70;8.17;;;1.60;99.90;;;;;;5073905;28;20020;-73
2023/01/27 08:27:51;;;;;;;19.40;7.47;;;1.60;99.90;;;;;;5092585;28;20032;-72
2023/01/27 08:30:17;;;;;;;19.23;8.67;;;1.60;99.90;;;;;;5075265;28;20385;-76
2023/01/27 08:32:42;;;;;;;19.47;8.23;;;1.60;99.90;;;;;;5112783;28;20503;-72
2023/01/27 08:35:08;;;;;;;17.90;8.00;;;1.60;99.90;;;;;;5094882;28;20028;-72
2023/01/27 08:37:34;;;;;;;16.40;7.10;;;1.60;99.90;;;;;;5112302;28;20104;-72
2023/01/27 08:39:59;;;;;;;17.50;6.80;;;1.60;99.90;;;;;;5112867;28;20404;-72
2023/01/27 08:42:25;;;;;;;13.10;6.50;;;1.60;99.90;;;;;;5112095;28;20028;-71
2023/01/27 08:44:51;;;;;;;14.73;6.83;;;1.60;99.90;;;;;;5113154;28;20077;-72
2023/01/27 08:47:17;;;;;;;14.70;6.87;;;1.70;99.90;;;;;;5107293;28;20099;-75
2023/01/27 08:49:42;;;;;;;13.63;6.90;;;1.80;99.90;;;;;;5080593;28;20468;-73
2023/01/27 08:52:08;;;;;;;11.83;5.90;;;1.80;99.90;;;;;;5088283;28;20028;-73
2023/01/27 08:54:33;;;;;;;14.30;6.60;;;1.80;99.90;;;;;;5111383;28;20020;-72
2023/01/27 08:56:59;;;;;;;14.73;6.50;;;1.80;99.90;;;;;;5108396;28;20439;-72
2023/01/27 08:59:24;;;;;;;15.30;6.70;;;1.90;99.90;;;;;;5104545;28;20019;-72
2023/01/27 09:01:50;;;;;;;15.07;6.20;;;2.00;99.90;;;;;;5112223;28;20027;-72
2023/01/27 09:04:16;;;;;;;13.00;5.83;;;2.00;99.90;;;;;;5087814;28;20039;-76
2023/01/27 09:06:41;;;;;;;12.80;6.23;;;2.00;99.90;;;;;;5092138;28;20032;-72
2023/01/27 09:09:10;;;;;;;16.07;6.47;;;2.00;99.90;;;;;;5093556;28;20019;-72
2023/01/27 09:11:42;;;;;;;12.30;6.10;;;2.10;99.90;;;;;;5088134;28;20031;-72
2023/01/27 09:14:07;;;;;;;15.52;6.38;;;2.10;99.90;;;;;;5095183;28;20026;-73
2023/01/27 09:16:33;;;;;;;14.53;5.90;;;2.10;99.90;;;;;;5073433;28;20115;-73
2023/01/27 09:18:59;;;;;;;16.00;6.33;;;2.10;99.90;;;;;;5094594;28;20044;-72
2023/01/27 09:21:25;;;;;;;14.67;6.20;;;2.20;99.90;;;;;;5084414;28;20473;-73
2023/01/27 09:23:51;;;;;;;15.30;6.77;;;2.20;99.90;;;;;;5092041;28;20469;-74
2023/01/27 09:26:16;;;;;;;14.73;6.67;;;2.20;99.90;;;;;;5097210;28;20035;-77
2023/01/27 09:28:42;;;;;;;13.43;6.10;;;2.30;99.90;;;;;;5097580;28;20488;-74
2023/01/27 09:31:09;;;;;;;14.90;6.20;;;2.40;99.90;;;;;;5115790;28;20110;-74
2023/01/27 09:33:37;;;;;;;12.83;5.90;;;2.30;99.90;;;;;;5109317;28;20020;-74
2023/01/27 09:36:10;;;;;;;12.90;5.77;;;2.40;99.90;;;;;;5083609;28;20035;-74
2023/01/27 09:38:47;;;;;;;11.40;5.67;;;2.50;99.90;;;;;;5086499;28;20559;-74
2023/01/27 09:41:35;;;;;;;13.60;6.00;;;2.50;99.90;;;;;;5089219;28;20034;-75
2023/01/27 09:44:19;;;;;;;11.20;5.40;;;2.50;99.90;;;;;;5114952;28;20098;-74
2023/01/27 09:47:13;;;;;;;11.77;5.23;;;2.60;99.90;;;;;;5086170;28;20016;-75
2023/01/27 09:49:45;;;;;;;8.90;4.60;;;2.60;99.90;;;;;;5083646;28;20054;-74
2023/01/27 09:52:58;;;;;;;10.90;5.33;;;2.70;99.90;;;;;;5095676;28;20028;-74
2023/01/27 09:55:39;;;;;;;11.32;5.30;;;2.70;99.90;;;;;;5091655;28;20055;-74
2023/01/27 09:58:36;;;;;;;8.57;3.78;;;2.80;99.90;;;;;;5100966;28;20136;-75
2023/01/27 10:01:36;;;;;;;7.90;4.23;;;2.80;99.90;;;;;;5095732;28;20028;-74
2023/01/27 10:04:20;;;;;;;12.87;5.27;;;2.80;99.90;;;;;;5090108;28;20043;-78
2023/01/27 10:06:59;;;;;;;11.97;4.87;;;2.70;99.90;;;;;;5082403;28;20020;-73
2023/01/27 10:09:50;;;;;;;9.23;4.50;;;2.70;99.90;;;;;;5082334;28;20094;-75
2023/01/27 10:12:33;;;;;;;10.10;4.93;;;2.70;99.90;;;;;;5086251;28;20031;-77
2023/01/27 10:15:10;;;;;;;;;;;2.70;99.90;;;;;;5089799;28;20036;-73
2023/01/27 10:17:53;;;;;;;8.23;3.93;;;2.70;99.90;;;;;;5089646;28;19899;-73
2023/01/27 10:20:45;;;;;;;;;;;2.80;99.90;;;;;;5088241;28;20050;-73
2023/01/27 10:23:40;;;;;;;9.47;4.10;;;2.80;99.90;;;;;;5083729;28;19907;-74
2023/01/27 10:26:30;;;;;;;9.47;4.10;;;2.90;99.90;;;;;;5082418;28;20024;-73
2023/01/27 10:29:31;;;;;;;7.40;3.77;;;2.80;99.90;;;;;;5108294;28;20353;-74
2023/01/27 10:32:21;;;;;;;7.27;3.40;;;2.90;99.90;;;;;;5115232;28;20028;-74
2023/01/27 10:35:13;;;;;;;5.93;3.30;;;2.80;99.90;;;;;;5105639;28;20060;-74
2023/01/27 10:37:49;;;;;;;5.83;3.23;;;2.90;99.90;;;;;;5092017;28;20115;-73
2023/01/27 10:40:43;;;;;;;7.53;3.43;;;2.80;99.90;;;;;;5105449;28;20039;-73
2023/01/27 10:43:14;;;;;;;7.20;3.23;;;2.90;99.90;;;;;;5088188;28;20047;-73
2023/01/27 10:45:46;;;;;;;4.33;3.03;;;3.00;99.90;;;;;;5089358;28;20027;-73
2023/01/27 10:48:30;;;;;;;;;;;3.00;99.90;;;;;;5093270;28;20031;-74
2023/01/27 10:51:02;;;;;;;6.77;3.10;;;3.00;99.90;;;;;;5091556;28;19918;-74
2023/01/27 10:53:47;;;;;;;5.75;2.92;;;3.00;99.90;;;;;;5104020;28;20462;-73
2023/01/27 10:56:32;;;;;;;11.07;2.77;;;3.00;99.90;;;;;;5088330;28;20028;-74
2023/01/27 10:59:31;;;;;;;6.63;3.10;;;3.00;99.90;;;;;;5113787;28;20015;-73
2023/01/27 11:02:04;;;;;;;8.60;3.07;;;3.00;99.90;;;;;;5093905;28;20149;-74
2023/01/27 11:04:59;;;;;;;8.20;3.50;;;3.00;99.90;;;;;;5078851;28;20043;-75
2023/01/27 11:07:25;;;;;;;7.90;3.50;;;3.10;99.90;;;;;;5064305;28;20036;-74
2023/01/27 11:10:01;;;;;;;7.73;3.23;;;3.10;99.90;;;;;;5108895;28;20088;-74
2023/01/27 11:12:41;;;;;;;6.03;2.90;;;3.10;99.90;;;;;;5113787;28;20020;-74
2023/01/27 11:15:27;;;;;;;8.00;3.00;;;3.20;99.90;;;;;;5114163;28;20027;-73
2023/01/27 11:17:58;;;;;;;5.33;2.90;;;3.20;99.90;;;;;;5113737;28;20024;-74
2023/01/27 11:20:35;;;;;;;6.18;3.33;;;3.20;99.90;;;;;;5091131;28;20051;-75
2023/01/27 11:23:12;;;;;;;5.27;2.57;;;3.20;99.90;;;;;;5109437;28;20020;-74
2023/01/27 11:26:10;;;;;;;7.27;2.93;;;3.20;99.90;;;;;;5080516;28;20026;-72
2023/01/27 11:29:13;;;;;;;5.27;2.80;;;3.20;99.90;;;;;;5102510;28;20019;-75
2023/01/27 11:31:52;;;;;;;4.63;2.90;;;3.30;99.90;;;;;;5113061;28;20016;-74
2023/01/27 11:34:21;;;;;;;4.97;2.70;;;3.30;99.90;;;;;;5085815;28;20368;-74
2023/01/27 11:36:48;;;;;;;5.23;2.77;;;3.20;99.90;;;;;;5084329;28;20023;-74
2023/01/27 11:39:14;;;;;;;4.47;2.53;;;3.20;99.90;;;;;;5105846;28;20036;-74
2023/01/27 11:42:00;;;;;;;4.83;2.67;;;3.20;99.90;;;;;;5086926;28;20036;-74
2023/01/27 11:44:32;;;;;;;5.90;2.90;;;3.20;99.90;;;;;;5076987;28;20023;-73
2023/01/27 11:47:00;;;;;;;6.57;2.60;;;3.20;99.90;;;;;;5083276;28;20064;-75
2023/01/27 11:49:36;;;;;;;4.83;2.70;;;3.30;99.90;;;;;;5082830;28;20020;-74
2023/01/27 11:52:25;;;;;;;4.30;2.50;;;3.20;99.90;;;;;;5094818;28;20030;-74
2023/01/27 11:55:12;;;;;;;5.60;2.77;;;3.20;99.90;;;;;;5087187;28;20012;-75
2023/01/27 11:57:43;;;;;;;5.13;2.93;;;3.20;99.90;;;;;;5078268;28;20157;-75
2023/01/27 12:00:19;;;;;;;6.85;2.78;;;3.20;99.90;;;;;;5089323;28;20035;-75
2023/01/27 12:02:53;;;;;;;4.73;2.50;;;3.20;99.90;;;;;;5086636;28;20472;-74
2023/01/27 12:05:27;;;;;;;5.23;3.00;;;3.20;99.90;;;;;;5078580;28;20350;-75
2023/01/27 12:07:59;;;;;;;6.13;2.80;;;3.20;99.90;;;;;;5097258;28;20016;-75
2023/01/27 12:10:28;;;;;;;6.03;2.95;;;3.20;99.90;;;;;;5097108;28;20032;-75
2023/01/27 12:12:54;;;;;;;6.20;3.00;;;3.20;99.90;;;;;;5094065;28;20129;-76
2023/01/27 12:15:23;;;;;;;6.00;3.13;;;3.20;99.90;;;;;;5082334;28;20019;-76
2023/01/27 12:17:54;;;;;;;4.53;2.90;;;3.20;99.90;;;;;;5094377;28;20024;-75
2023/01/27 12:20:32;;;;;;;5.00;2.73;;;3.20;99.90;;;;;;5088995;28;20055;-75
2023/01/27 12:23:25;;;;;;;4.90;2.80;;;3.20;99.90;;;;;;5081599;28;20012;-75
2023/01/27 12:25:59;;;;;;;4.70;2.47;;;3.20;99.90;;;;;;5078452;28;20103;-74
2023/01/27 12:28:36;;;;;;;3.63;2.60;;;3.30;99.90;;;;;;5103984;28;20085;-74
2023/01/27 12:31:09;;;;;;;4.43;2.50;;;3.20;99.90;;;;;;5107025;28;20020;-74
2023/01/27 12:33:38;;;;;;;9.60;3.00;;;3.10;99.90;;;;;;5087744;28;20070;-75
2023/01/27 12:36:23;;;;;;;4.83;2.87;;;3.10;99.90;;;;;;5106154;28;20106;-73
2023/01/27 12:38:52;;;;;;;8.40;3.10;;;3.10;99.90;;;;;;5086270;28;20016;-73
2023/01/27 12:41:31;;;;;;;5.30;2.77;;;3.10;99.90;;;;;;5088885;28;20454;-74
2023/01/27 12:44:08;;;;;;;5.20;2.50;;;3.20;99.90;;;;;;5099712;28;20020;-75
2023/01/27 12:46:33;;;;;;;6.60;2.70;;;3.20;99.90;;;;;;5097812;28;20016;-74
2023/01/27 12:49:07;;;;;;;5.50;2.83;;;3.20;99.90;;;;;;5098094;28;20026;-74
2023/01/27 12:51:40;;;;;;;5.10;2.23;;;3.20;99.90;;;;;;5082719;28;20345;-73
2023/01/27 12:54:24;;;;;;;4.63;2.60;;;3.20;99.90;;;;;;5088423;28;20020;-76
2023/01/27 12:56:53;;;;;;;4.43;2.43;;;3.20;99.90;;;;;;5103799;28;20043;-75
2023/01/27 12:59:21;;;;;;;11.27;5.50;;;3.20;99.90;;;;;;5085570;28;20023;-75
2023/01/27 13:01:59;;;;;;;7.10;3.33;;;3.10;99.90;;;;;;5111055;28;20520;-75
2023/01/27 13:04:25;;;;;;;5.00;2.80;;;3.20;99.90;;;;;;5103421;28;20026;-75
2023/01/27 13:07:00;;;;;;;3.83;2.20;;;3.20;99.90;;;;;;5093003;28;20047;-75
2023/01/27 13:09:32;;;;;;;4.57;2.60;;;3.20;99.90;;;;;;5100543;28;20024;-75
2023/01/27 13:12:09;;;;;;;4.85;2.65;;;3.30;99.90;;;;;;5082238;28;20028;-75
2023/01/27 13:14:39;;;;;;;4.80;2.53;;;3.30;99.90;;;;;;5099730;28;20562;-74
2023/01/27 13:17:27;;;;;;;3.90;2.40;;;3.30;99.90;;;;;;5091424;28;20098;-74
2023/01/27 13:19:57;;;;;;;5.20;2.57;;;3.30;99.90;;;;;;5092675;28;20047;-76
2023/01/27 13:22:25;;;;;;;4.33;2.33;;;3.30;99.90;;;;;;5091870;28;20019;-75
2023/01/27 13:24:57;;;;;;;4.47;2.20;;;3.30;99.90;;;;;;5085873;28;20111;-75
2023/01/27 13:27:23;;;;;;;;;;;3.40;99.90;;;;;;5081221;28;20016;-74
2023/01/27 13:30:21;;;;;;;3.87;2.30;;;3.40;99.90;;;;;;5107464;28;20395;-74
2023/01/27 13:32:51;;;;;;;4.83;2.77;;;3.40;99.90;;;;;;5058504;28;20427;-74
2023/01/27 13:35:43;;;;;;;4.17;2.53;;;3.40;99.90;;;;;;5110613;28;20110;-74
2023/01/27 13:38:19;;;;;;;4.18;2.78;;;3.30;99.90;;;;;;5092846;28;20023;-76
2023/01/27 13:40:46;;;;;;;4.97;2.50;;;3.30;99.90;;;;;;5107358;28;20415;-75